sensor_id;sensor_type;location;lat;lon;timestamp;pressure;altitude;pressure_sealevel;temperature;humidity
22651;BME280;11492;42.646;23.400;2023-02-13T00:01:04;96801.75;;;-0.20;75.38
22651;BME280;11492;42.646;23.400;2023-02-13T00:03:30;96797.78;;;-0.25;75.36
22651;BME280;11492;42.646;23.400;2023-02-13T00:05:55;96795.06;;;-0.23;75.60
22651;BME280;11492;42.646;23.400;2023-02-13T00:08:21;96803.97;;;-0.31;74.63
22651;BME280;11492;42.646;23.400;2023-02-13T00:10:47;96804.22;;;-0.37;73.60
22651;BME280;11492;42.646;23.400;2023-02-13T00:13:12;96802.56;;;-0.38;73.24
22651;BME280;11492;42.646;23.400;2023-02-13T00:15:38;96798.81;;;-0.48;73.37
22651;BME280;11492;42.646;23.400;2023-02-13T00:18:03;96796.84;;;-0.59;73.44
22651;BME280;11492;42.646;23.400;2023-02-13T00:20:29;96787.09;;;-0.68;73.66
22651;BME280;11492;42.646;23.400;2023-02-13T00:22:54;96811.66;;;-0.50;73.77
22651;BME280;11492;42.646;23.400;2023-02-13T00:25:20;96799.47;;;-0.61;73.72
22651;BME280;11492;42.646;23.400;2023-02-13T00:27:45;96795.28;;;-0.80;73.93
22651;BME280;11492;42.646;23.400;2023-02-13T00:30:11;96818.91;;;-0.79;73.96
22651;BME280;11492;42.646;23.400;2023-02-13T00:32:37;96808.75;;;-0.98;74.01
22651;BME280;11492;42.646;23.400;2023-02-13T00:35:02;96803.06;;;-0.84;74.31
22651;BME280;11492;42.646;23.400;2023-02-13T00:37:28;96810.75;;;-0.86;74.26
22651;BME280;11492;42.646;23.400;2023-02-13T00:39:53;96809.31;;;-0.91;74.33
22651;BME280;11492;42.646;23.400;2023-02-13T00:42:19;96818.63;;;-0.92;75.85
22651;BME280;11492;42.646;23.400;2023-02-13T00:44:48;96814.81;;;-0.82;75.00
22651;BME280;11492;42.646;23.400;2023-02-13T00:47:13;96802.78;;;-0.78;75.55
22651;BME280;11492;42.646;23.400;2023-02-13T00:49:39;96795.34;;;-0.81;74.36
22651;BME280;11492;42.646;23.400;2023-02-13T00:52:04;96812.53;;;-0.70;73.75
22651;BME280;11492;42.646;23.400;2023-02-13T00:54:30;96821.84;;;-0.70;73.74
22651;BME280;11492;42.646;23.400;2023-02-13T00:56:55;96818.31;;;-0.66;73.54
22651;BME280;11492;42.646;23.400;2023-02-13T00:59:21;96819.09;;;-0.84;74.77
22651;BME280;11492;42.646;23.400;2023-02-13T01:01:46;96829.31;;;-0.85;75.54
22651;BME280;11492;42.646;23.400;2023-02-13T01:04:11;96832.59;;;-0.83;75.62
22651;BME280;11492;42.646;23.400;2023-02-13T01:06:37;96831.84;;;-0.85;75.17
22651;BME280;11492;42.646;23.400;2023-02-13T01:09:03;96828.59;;;-0.89;74.81
22651;BME280;11492;42.646;23.400;2023-02-13T01:11:28;96825.53;;;-0.95;74.20
22651;BME280;11492;42.646;23.400;2023-02-13T01:13:53;96821.81;;;-0.88;74.10
22651;BME280;11492;42.646;23.400;2023-02-13T01:16:19;96821.09;;;-0.90;73.72
22651;BME280;11492;42.646;23.400;2023-02-13T01:18:44;96825.22;;;-0.88;73.90
22651;BME280;11492;42.646;23.400;2023-02-13T01:21:18;96828.13;;;-0.78;73.43
22651;BME280;11492;42.646;23.400;2023-02-13T01:23:44;96815.81;;;-0.86;73.06
22651;BME280;11492;42.646;23.400;2023-02-13T01:26:18;96829.84;;;-0.97;73.74
22651;BME280;11492;42.646;23.400;2023-02-13T01:28:44;96827.75;;;-0.88;73.84
22651;BME280;11492;42.646;23.400;2023-02-13T01:31:09;96826.06;;;-0.89;73.86
22651;BME280;11492;42.646;23.400;2023-02-13T01:33:35;96837.50;;;-0.99;73.72
22651;BME280;11492;42.646;23.400;2023-02-13T01:36:08;96831.94;;;-1.06;74.45
22651;BME280;11492;42.646;23.400;2023-02-13T01:38:34;96828.88;;;-1.13;74.08
22651;BME280;11492;42.646;23.400;2023-02-13T01:40:59;96841.69;;;-0.98;73.85
22651;BME280;11492;42.646;23.400;2023-02-13T01:44:02;96822.81;;;-0.91;73.23
22651;BME280;11492;42.646;23.400;2023-02-13T01:46:37;96842.00;;;-0.67;72.61
22651;BME280;11492;42.646;23.400;2023-02-13T01:49:14;96833.50;;;-0.66;72.66
22651;BME280;11492;42.646;23.400;2023-02-13T01:51:43;96833.63;;;-0.69;72.94
22651;BME280;11492;42.646;23.400;2023-02-13T01:54:14;96837.53;;;-0.62;72.48
22651;BME280;11492;42.646;23.400;2023-02-13T01:56:47;96827.66;;;-0.68;72.87
22651;BME280;11492;42.646;23.400;2023-02-13T01:59:15;96840.56;;;-0.54;73.02
22651;BME280;11492;42.646;23.400;2023-02-13T02:01:42;96833.56;;;-0.50;73.43
22651;BME280;11492;42.646;23.400;2023-02-13T02:04:21;96830.91;;;-0.47;73.69
22651;BME280;11492;42.646;23.400;2023-02-13T02:06:54;96833.44;;;-0.47;73.33
22651;BME280;11492;42.646;23.400;2023-02-13T02:09:24;96835.63;;;-0.39;72.66
22651;BME280;11492;42.646;23.400;2023-02-13T02:11:55;96833.00;;;-0.38;73.58
22651;BME280;11492;42.646;23.400;2023-02-13T02:14:23;96831.38;;;-0.39;74.45
22651;BME280;11492;42.646;23.400;2023-02-13T02:16:50;96822.56;;;-0.32;75.35
22651;BME280;11492;42.646;23.400;2023-02-13T02:52:38;96865.63;;;0.23;74.49
22651;BME280;11492;42.646;23.400;2023-02-13T02:55:22;96862.81;;;0.10;74.57
22651;BME280;11492;42.646;23.400;2023-02-13T03:01:06;96866.09;;;-0.04;75.65
22651;BME280;11492;42.646;23.400;2023-02-13T03:03:51;96865.78;;;-0.15;76.17
22651;BME280;11492;42.646;23.400;2023-02-13T03:06:45;96856.66;;;-0.19;75.71
22651;BME280;11492;42.646;23.400;2023-02-13T03:09:15;96853.13;;;-0.17;76.10
22651;BME280;11492;42.646;23.400;2023-02-13T03:12:02;96859.84;;;0.02;76.69
22651;BME280;11492;42.646;23.400;2023-02-13T03:14:46;96849.25;;;0.11;77.48
22651;BME280;11492;42.646;23.400;2023-02-13T03:17:14;96853.00;;;0.21;77.20
22651;BME280;11492;42.646;23.400;2023-02-13T03:25:37;96862.19;;;0.40;76.13
22651;BME280;11492;42.646;23.400;2023-02-13T03:28:18;96859.44;;;0.45;75.61
22651;BME280;11492;42.646;23.400;2023-02-13T03:36:40;96869.53;;;0.63;75.24
22651;BME280;11492;42.646;23.400;2023-02-13T03:42:22;96861.75;;;0.66;74.90
22651;BME280;11492;42.646;23.400;2023-02-13T03:44:54;96869.75;;;0.75;74.30
22651;BME280;11492;42.646;23.400;2023-02-13T03:47:42;96856.06;;;0.77;75.01
22651;BME280;11492;42.646;23.400;2023-02-13T03:50:08;96859.50;;;0.76;74.32
22651;BME280;11492;42.646;23.400;2023-02-13T03:55:15;96861.53;;;0.70;73.44
22651;BME280;11492;42.646;23.400;2023-02-13T03:58:30;96858.09;;;0.71;74.36
22651;BME280;11492;42.646;23.400;2023-02-13T04:01:18;96852.19;;;0.71;73.81
22651;BME280;11492;42.646;23.400;2023-02-13T04:03:51;96858.03;;;0.73;73.78
22651;BME280;11492;42.646;23.400;2023-02-13T04:06:26;96855.56;;;0.71;73.83
22651;BME280;11492;42.646;23.400;2023-02-13T04:08:54;96866.63;;;0.70;72.89
22651;BME280;11492;42.646;23.400;2023-02-13T04:14:19;96859.00;;;0.53;72.70
22651;BME280;11492;42.646;23.400;2023-02-13T04:16:50;96868.25;;;0.54;73.21
22651;BME280;11492;42.646;23.400;2023-02-13T04:19:18;96861.38;;;0.56;73.18
22651;BME280;11492;42.646;23.400;2023-02-13T04:21:48;96862.88;;;0.60;72.08
22651;BME280;11492;42.646;23.400;2023-02-13T04:24:14;96871.53;;;0.56;72.25
22651;BME280;11492;42.646;23.400;2023-02-13T04:26:41;96869.50;;;0.46;71.88
22651;BME280;11492;42.646;23.400;2023-02-13T04:29:08;96866.31;;;0.43;72.11
22651;BME280;11492;42.646;23.400;2023-02-13T04:31:34;96873.63;;;0.49;71.76
22651;BME280;11492;42.646;23.400;2023-02-13T04:33:59;96870.28;;;0.48;71.34
22651;BME280;11492;42.646;23.400;2023-02-13T04:36:25;96866.44;;;0.40;71.72
22651;BME280;11492;42.646;23.400;2023-02-13T04:38:50;96865.50;;;0.42;71.94
22651;BME280;11492;42.646;23.400;2023-02-13T04:41:16;96868.56;;;0.32;72.41
22651;BME280;11492;42.646;23.400;2023-02-13T04:43:41;96856.69;;;0.32;72.54
22651;BME280;11492;42.646;23.400;2023-02-13T04:46:07;96859.59;;;0.42;72.13
22651;BME280;11492;42.646;23.400;2023-02-13T04:48:32;96853.91;;;0.37;72.83
22651;BME280;11492;42.646;23.400;2023-02-13T04:50:58;96864.63;;;0.25;73.51
22651;BME280;11492;42.646;23.400;2023-02-13T04:53:23;96863.91;;;0.40;72.88
22651;BME280;11492;42.646;23.400;2023-02-13T04:55:49;96883.09;;;0.45;72.58
22651;BME280;11492;42.646;23.400;2023-02-13T04:58:14;96875.28;;;0.49;72.38
22651;BME280;11492;42.646;23.400;2023-02-13T05:00:39;96884.53;;;0.50;72.09
22651;BME280;11492;42.646;23.400;2023-02-13T05:03:10;96879.16;;;0.56;71.50
22651;BME280;11492;42.646;23.400;2023-02-13T05:05:36;96886.72;;;0.58;72.10
22651;BME280;11492;42.646;23.400;2023-02-13T05:08:02;96891.84;;;0.56;71.64
22651;BME280;11492;42.646;23.400;2023-02-13T05:10:28;96885.03;;;0.40;71.28
22651;BME280;11492;42.646;23.400;2023-02-13T05:12:53;96892.06;;;0.35;70.89
22651;BME280;11492;42.646;23.400;2023-02-13T05:15:19;96894.25;;;0.43;71.31
22651;BME280;11492;42.646;23.400;2023-02-13T05:17:45;96887.44;;;0.43;71.17
22651;BME280;11492;42.646;23.400;2023-02-13T05:20:12;96892.94;;;0.52;70.59
22651;BME280;11492;42.646;23.400;2023-02-13T05:22:45;96899.13;;;0.64;73.37
22651;BME280;11492;42.646;23.400;2023-02-13T05:25:29;96901.44;;;0.68;71.34
22651;BME280;11492;42.646;23.400;2023-02-13T05:27:54;96893.22;;;0.63;70.00
22651;BME280;11492;42.646;23.400;2023-02-13T05:30:20;96904.63;;;0.72;70.56
22651;BME280;11492;42.646;23.400;2023-02-13T05:32:45;96906.56;;;0.67;69.51
22651;BME280;11492;42.646;23.400;2023-02-13T05:35:11;96897.63;;;0.43;69.64
22651;BME280;11492;42.646;23.400;2023-02-13T05:37:36;96899.94;;;0.48;69.90
22651;BME280;11492;42.646;23.400;2023-02-13T05:40:02;96906.78;;;0.29;70.55
22651;BME280;11492;42.646;23.400;2023-02-13T05:42:28;96902.78;;;0.42;70.39
22651;BME280;11492;42.646;23.400;2023-02-13T05:44:53;96909.19;;;0.49;70.46
22651;BME280;11492;42.646;23.400;2023-02-13T05:47:18;96909.28;;;0.47;69.92
22651;BME280;11492;42.646;23.400;2023-02-13T05:49:44;96913.66;;;0.44;70.55
22651;BME280;11492;42.646;23.400;2023-02-13T05:52:09;96916.41;;;0.39;70.66
22651;BME280;11492;42.646;23.400;2023-02-13T05:54:34;96906.19;;;0.41;69.75
22651;BME280;11492;42.646;23.400;2023-02-13T05:57:02;96916.63;;;0.35;70.73
22651;BME280;11492;42.646;23.400;2023-02-13T05:59:28;96916.03;;;0.47;69.67
22651;BME280;11492;42.646;23.400;2023-02-13T06:01:53;96920.59;;;0.40;69.62
22651;BME280;11492;42.646;23.400;2023-02-13T06:04:19;96922.78;;;0.48;69.90
22651;BME280;11492;42.646;23.400;2023-02-13T06:06:44;96926.97;;;0.49;69.35
22651;BME280;11492;42.646;23.400;2023-02-13T06:09:10;96919.53;;;0.27;69.76
22651;BME280;11492;42.646;23.400;2023-02-13T06:11:35;96919.78;;;0.40;69.87
22651;BME280;11492;42.646;23.400;2023-02-13T06:14:01;96919.03;;;0.38;69.95
22651;BME280;11492;42.646;23.400;2023-02-13T06:16:26;96930.41;;;0.48;69.80
22651;BME280;11492;42.646;23.400;2023-02-13T06:18:52;96931.88;;;0.51;68.99
22651;BME280;11492;42.646;23.400;2023-02-13T06:21:17;96923.53;;;0.49;68.94
22651;BME280;11492;42.646;23.400;2023-02-13T06:23:42;96936.91;;;0.53;69.57
22651;BME280;11492;42.646;23.400;2023-02-13T06:26:09;96934.16;;;0.57;69.77
22651;BME280;11492;42.646;23.400;2023-02-13T06:28:34;96934.81;;;0.61;69.17
22651;BME280;11492;42.646;23.400;2023-02-13T06:31:00;96938.56;;;0.71;68.79
22651;BME280;11492;42.646;23.400;2023-02-13T06:33:25;96937.53;;;0.74;68.65
22651;BME280;11492;42.646;23.400;2023-02-13T06:35:51;96948.03;;;0.67;69.11
22651;BME280;11492;42.646;23.400;2023-02-13T06:38:16;96942.16;;;0.67;69.63
22651;BME280;11492;42.646;23.400;2023-02-13T06:40:44;96943.31;;;0.78;68.83
22651;BME280;11492;42.646;23.400;2023-02-13T06:43:10;96941.06;;;0.89;68.25
22651;BME280;11492;42.646;23.400;2023-02-13T06:45:36;96940.16;;;0.90;68.31
22651;BME280;11492;42.646;23.400;2023-02-13T06:48:02;96946.34;;;1.01;69.04
22651;BME280;11492;42.646;23.400;2023-02-13T06:50:27;96950.19;;;1.09;68.32
22651;BME280;11492;42.646;23.400;2023-02-13T06:52:52;96941.19;;;1.02;69.19
22651;BME280;11492;42.646;23.400;2023-02-13T06:55:18;96942.91;;;1.19;67.79
22651;BME280;11492;42.646;23.400;2023-02-13T06:57:45;96945.06;;;1.26;68.59
22651;BME280;11492;42.646;23.400;2023-02-13T07:00:12;96939.09;;;1.27;67.58
22651;BME280;11492;42.646;23.400;2023-02-13T07:02:39;96946.41;;;1.33;67.71
22651;BME280;11492;42.646;23.400;2023-02-13T07:05:05;96941.91;;;1.38;67.50
22651;BME280;11492;42.646;23.400;2023-02-13T07:07:35;96933.22;;;1.42;67.81
22651;BME280;11492;42.646;23.400;2023-02-13T07:10:02;96933.59;;;1.51;67.37
22651;BME280;11492;42.646;23.400;2023-02-13T07:12:28;96938.28;;;1.58;67.41
22651;BME280;11492;42.646;23.400;2023-02-13T07:14:53;96938.94;;;1.62;66.67
22651;BME280;11492;42.646;23.400;2023-02-13T07:17:19;96935.91;;;1.71;67.16
22651;BME280;11492;42.646;23.400;2023-02-13T07:19:44;96934.53;;;1.80;66.84
22651;BME280;11492;42.646;23.400;2023-02-13T07:22:09;96939.13;;;1.74;66.12
22651;BME280;11492;42.646;23.400;2023-02-13T07:24:35;96924.03;;;1.71;66.73
22651;BME280;11492;42.646;23.400;2023-02-13T07:27:03;96946.88;;;1.88;67.18
22651;BME280;11492;42.646;23.400;2023-02-13T07:29:28;96941.56;;;2.07;66.54
22651;BME280;11492;42.646;23.400;2023-02-13T07:31:54;96940.09;;;2.19;66.02
22651;BME280;11492;42.646;23.400;2023-02-13T07:34:19;96948.78;;;2.30;65.86
22651;BME280;11492;42.646;23.400;2023-02-13T07:36:45;96949.13;;;2.39;65.29
22651;BME280;11492;42.646;23.400;2023-02-13T07:39:10;96944.06;;;2.53;65.98
22651;BME280;11492;42.646;23.400;2023-02-13T07:41:35;96940.38;;;2.58;65.08
22651;BME280;11492;42.646;23.400;2023-02-13T07:44:01;96936.44;;;2.53;65.46
22651;BME280;11492;42.646;23.400;2023-02-13T07:46:26;96931.84;;;2.59;64.07
22651;BME280;11492;42.646;23.400;2023-02-13T07:48:52;96942.03;;;2.59;64.44
22651;BME280;11492;42.646;23.400;2023-02-13T07:51:17;96927.38;;;2.63;65.03
22651;BME280;11492;42.646;23.400;2023-02-13T07:53:43;96941.91;;;2.76;64.69
22651;BME280;11492;42.646;23.400;2023-02-13T07:56:09;96937.53;;;2.78;64.30
22651;BME280;11492;42.646;23.400;2023-02-13T07:58:36;96939.50;;;2.88;64.16
22651;BME280;11492;42.646;23.400;2023-02-13T08:01:09;96940.25;;;2.90;64.41
22651;BME280;11492;42.646;23.400;2023-02-13T08:03:35;96936.03;;;2.89;63.82
22651;BME280;11492;42.646;23.400;2023-02-13T08:06:00;96940.63;;;2.98;64.36
22651;BME280;11492;42.646;23.400;2023-02-13T08:08:26;96931.63;;;3.06;63.68
22651;BME280;11492;42.646;23.400;2023-02-13T08:10:52;96930.94;;;3.18;64.43
22651;BME280;11492;42.646;23.400;2023-02-13T08:13:36;96934.50;;;3.29;64.52
22651;BME280;11492;42.646;23.400;2023-02-13T08:16:02;96928.88;;;3.38;64.18
22651;BME280;11492;42.646;23.400;2023-02-13T08:18:27;96930.03;;;3.47;64.76
22651;BME280;11492;42.646;23.400;2023-02-13T08:20:52;96934.00;;;3.52;64.65
22651;BME280;11492;42.646;23.400;2023-02-13T08:23:18;96931.25;;;3.55;64.99
22651;BME280;11492;42.646;23.400;2023-02-13T08:25:43;96935.72;;;3.65;64.59
22651;BME280;11492;42.646;23.400;2023-02-13T08:28:09;96930.34;;;3.70;63.72
22651;BME280;11492;42.646;23.400;2023-02-13T08:30:34;96929.16;;;3.61;63.01
22651;BME280;11492;42.646;23.400;2023-02-13T08:33:00;96924.69;;;3.65;63.01
22651;BME280;11492;42.646;23.400;2023-02-13T08:35:25;96926.34;;;3.79;64.01
22651;BME280;11492;42.646;23.400;2023-02-13T08:37:54;96926.50;;;3.90;63.32
22651;BME280;11492;42.646;23.400;2023-02-13T08:40:19;96921.69;;;3.99;62.95
22651;BME280;11492;42.646;23.400;2023-02-13T08:42:45;96927.44;;;3.89;62.99
22651;BME280;11492;42.646;23.400;2023-02-13T08:45:10;96933.06;;;3.67;63.77
22651;BME280;11492;42.646;23.400;2023-02-13T08:47:38;96931.00;;;3.73;63.00
22651;BME280;11492;42.646;23.400;2023-02-13T08:50:04;96927.50;;;3.88;63.27
22651;BME280;11492;42.646;23.400;2023-02-13T08:52:30;96937.44;;;3.92;63.47
22651;BME280;11492;42.646;23.400;2023-02-13T08:54:55;96932.50;;;4.03;63.51
22651;BME280;11492;42.646;23.400;2023-02-13T08:57:21;96928.97;;;4.05;62.22
22651;BME280;11492;42.646;23.400;2023-02-13T08:59:46;96932.59;;;4.15;62.27
22651;BME280;11492;42.646;23.400;2023-02-13T09:02:12;96930.50;;;4.22;62.46
22651;BME280;11492;42.646;23.400;2023-02-13T09:04:37;96928.19;;;4.31;61.66
22651;BME280;11492;42.646;23.400;2023-02-13T09:07:03;96929.41;;;4.25;61.42
22651;BME280;11492;42.646;23.400;2023-02-13T09:09:28;96931.66;;;4.30;62.18
22651;BME280;11492;42.646;23.400;2023-02-13T09:11:53;96930.22;;;4.26;61.09
22651;BME280;11492;42.646;23.400;2023-02-13T09:14:22;96934.28;;;4.28;61.37
22651;BME280;11492;42.646;23.400;2023-02-13T09:16:48;96933.75;;;4.37;61.93
22651;BME280;11492;42.646;23.400;2023-02-13T09:19:13;96929.28;;;4.41;61.12
22651;BME280;11492;42.646;23.400;2023-02-13T09:21:38;96922.75;;;4.49;61.34
22651;BME280;11492;42.646;23.400;2023-02-13T09:24:08;96917.88;;;4.58;60.97
22651;BME280;11492;42.646;23.400;2023-02-13T09:26:34;96916.69;;;4.76;60.77
22651;BME280;11492;42.646;23.400;2023-02-13T09:28:59;96916.88;;;4.87;59.57
22651;BME280;11492;42.646;23.400;2023-02-13T09:31:24;96913.25;;;4.77;59.37
22651;BME280;11492;42.646;23.400;2023-02-13T09:33:50;96912.63;;;4.86;59.67
22651;BME280;11492;42.646;23.400;2023-02-13T09:36:18;96907.56;;;4.98;60.16
22651;BME280;11492;42.646;23.400;2023-02-13T09:38:45;96904.44;;;5.19;58.66
22651;BME280;11492;42.646;23.400;2023-02-13T09:41:30;96903.44;;;5.46;58.57
22651;BME280;11492;42.646;23.400;2023-02-13T09:44:04;96900.84;;;5.58;57.76
22651;BME280;11492;42.646;23.400;2023-02-13T09:46:37;96904.84;;;5.62;57.27
22651;BME280;11492;42.646;23.400;2023-02-13T09:49:07;96891.44;;;5.46;56.89
22651;BME280;11492;42.646;23.400;2023-02-13T09:51:34;96892.75;;;5.89;56.46
22651;BME280;11492;42.646;23.400;2023-02-13T09:54:05;96889.41;;;6.23;55.91
22651;BME280;11492;42.646;23.400;2023-02-13T09:59:02;96875.94;;;7.46;52.66
22651;BME280;11492;42.646;23.400;2023-02-13T10:01:31;96871.88;;;8.19;50.49
22651;BME280;11492;42.646;23.400;2023-02-13T10:04:21;96874.44;;;8.30;49.13
22651;BME280;11492;42.646;23.400;2023-02-13T10:10:10;96856.50;;;10.96;44.24
22651;BME280;11492;42.646;23.400;2023-02-13T10:18:05;96846.31;;;12.92;38.83
22651;BME280;11492;42.646;23.400;2023-02-13T10:20:53;96847.41;;;12.46;38.86
22651;BME280;11492;42.646;23.400;2023-02-13T10:25:59;96833.28;;;13.44;38.00
22651;BME280;11492;42.646;23.400;2023-02-13T10:28:32;96823.84;;;14.58;36.30
22651;BME280;11492;42.646;23.400;2023-02-13T10:31:05;96817.16;;;15.59;34.79
22651;BME280;11492;42.646;23.400;2023-02-13T10:33:45;96809.72;;;16.02;33.26
22651;BME280;11492;42.646;23.400;2023-02-13T10:36:34;96809.06;;;16.46;32.14
22651;BME280;11492;42.646;23.400;2023-02-13T10:39:24;96807.69;;;16.35;32.36
22651;BME280;11492;42.646;23.400;2023-02-13T10:42:13;96797.03;;;16.45;32.38
22651;BME280;11492;42.646;23.400;2023-02-13T10:45:00;96799.13;;;16.11;32.54
22651;BME280;11492;42.646;23.400;2023-02-13T11:01:02;96776.75;;;17.79;30.05
22651;BME280;11492;42.646;23.400;2023-02-13T11:03:31;96772.09;;;17.89;30.31
22651;BME280;11492;42.646;23.400;2023-02-13T11:05:58;96762.53;;;18.38;28.63
22651;BME280;11492;42.646;23.400;2023-02-13T11:08:35;96749.88;;;18.91;28.37
22651;BME280;11492;42.646;23.400;2023-02-13T11:11:03;96757.72;;;19.59;27.77
22651;BME280;11492;42.646;23.400;2023-02-13T11:13:29;96752.69;;;18.89;27.67
22651;BME280;11492;42.646;23.400;2023-02-13T11:16:02;96758.13;;;18.73;28.30
22651;BME280;11492;42.646;23.400;2023-02-13T11:18:30;96752.09;;;19.14;27.86
22651;BME280;11492;42.646;23.400;2023-02-13T11:21:08;96745.06;;;19.62;27.51
22651;BME280;11492;42.646;23.400;2023-02-13T11:23:39;96737.63;;;20.32;26.85
22651;BME280;11492;42.646;23.400;2023-02-13T11:26:10;96732.81;;;20.42;26.29
22651;BME280;11492;42.646;23.400;2023-02-13T11:28:44;96720.03;;;20.79;25.93
22651;BME280;11492;42.646;23.400;2023-02-13T11:31:41;96717.06;;;21.20;25.39
22651;BME280;11492;42.646;23.400;2023-02-13T11:34:26;96714.63;;;21.25;25.18
22651;BME280;11492;42.646;23.400;2023-02-13T11:37:08;96708.34;;;20.94;24.61
22651;BME280;11492;42.646;23.400;2023-02-13T11:39:40;96709.00;;;21.66;24.57
22651;BME280;11492;42.646;23.400;2023-02-13T11:42:34;96703.47;;;21.87;23.70
22651;BME280;11492;42.646;23.400;2023-02-13T11:45:20;96706.34;;;21.22;24.15
22651;BME280;11492;42.646;23.400;2023-02-13T11:47:46;96691.59;;;21.52;24.05
22651;BME280;11492;42.646;23.400;2023-02-13T11:50:32;96688.50;;;22.06;23.85
22651;BME280;11492;42.646;23.400;2023-02-13T11:55:38;96674.53;;;23.16;22.95
22651;BME280;11492;42.646;23.400;2023-02-13T12:00:37;96664.44;;;24.50;21.38
22651;BME280;11492;42.646;23.400;2023-02-13T12:03:26;96651.09;;;24.45;21.07
22651;BME280;11492;42.646;23.400;2023-02-13T12:06:04;96653.31;;;24.30;20.73
22651;BME280;11492;42.646;23.400;2023-02-13T12:08:33;96663.97;;;23.16;21.48
22651;BME280;11492;42.646;23.400;2023-02-13T12:10:59;96646.22;;;23.29;21.41
22651;BME280;11492;42.646;23.400;2023-02-13T12:13:34;96652.09;;;23.73;21.51
22651;BME280;11492;42.646;23.400;2023-02-13T12:16:10;96650.94;;;24.40;21.07
22651;BME280;11492;42.646;23.400;2023-02-13T12:18:41;96645.69;;;25.09;20.49
22651;BME280;11492;42.646;23.400;2023-02-13T12:27:18;96631.31;;;26.18;19.01
22651;BME280;11492;42.646;23.400;2023-02-13T12:38:23;96635.03;;;26.44;18.41
22651;BME280;11492;42.646;23.400;2023-02-13T12:41:27;96623.38;;;27.00;17.85
22651;BME280;11492;42.646;23.400;2023-02-13T12:55:11;96610.06;;;25.79;18.71
22651;BME280;11492;42.646;23.400;2023-02-13T13:11:28;96599.56;;;26.34;17.50
22651;BME280;11492;42.646;23.400;2023-02-13T13:14:14;96584.34;;;26.41;17.99
22651;BME280;11492;42.646;23.400;2023-02-13T13:22:13;96570.25;;;26.24;18.54
22651;BME280;11492;42.646;23.400;2023-02-13T13:27:29;96569.84;;;27.19;16.71
22651;BME280;11492;42.646;23.400;2023-02-13T13:30:05;96575.59;;;26.84;17.28
22651;BME280;11492;42.646;23.400;2023-02-13T13:32:38;96572.50;;;25.82;17.56
22651;BME280;11492;42.646;23.400;2023-02-13T13:35:05;96577.50;;;25.00;18.55
22651;BME280;11492;42.646;23.400;2023-02-13T13:37:36;96566.78;;;24.26;19.16
22651;BME280;11492;42.646;23.400;2023-02-13T13:48:04;96570.28;;;21.92;21.08
22651;BME280;11492;42.646;23.400;2023-02-13T13:50:35;96571.25;;;20.33;22.41
22651;BME280;11492;42.646;23.400;2023-02-13T13:53:14;96574.19;;;18.86;24.09
22651;BME280;11492;42.646;23.400;2023-02-13T13:58:21;96586.06;;;16.49;27.03
22651;BME280;11492;42.646;23.400;2023-02-13T14:04:03;96580.38;;;14.89;29.19
22651;BME280;11492;42.646;23.400;2023-02-13T14:11:51;96580.88;;;13.26;33.07
22651;BME280;11492;42.646;23.400;2023-02-13T14:16:51;96579.63;;;12.72;32.98
22651;BME280;11492;42.646;23.400;2023-02-13T14:19:37;96570.63;;;11.99;34.57
22651;BME280;11492;42.646;23.400;2023-02-13T14:22:29;96579.59;;;11.88;35.12
22651;BME280;11492;42.646;23.400;2023-02-13T14:24:58;96573.31;;;11.73;34.59
22651;BME280;11492;42.646;23.400;2023-02-13T14:27:32;96560.22;;;11.74;35.38
22651;BME280;11492;42.646;23.400;2023-02-13T14:29:59;96559.41;;;11.74;35.78
22651;BME280;11492;42.646;23.400;2023-02-13T14:32:32;96563.38;;;11.69;35.71
22651;BME280;11492;42.646;23.400;2023-02-13T14:35:01;96556.44;;;11.52;35.94
22651;BME280;11492;42.646;23.400;2023-02-13T14:37:37;96552.19;;;11.34;36.24
22651;BME280;11492;42.646;23.400;2023-02-13T14:40:51;96549.28;;;11.20;37.40
22651;BME280;11492;42.646;23.400;2023-02-13T14:43:31;96560.69;;;11.17;37.03
22651;BME280;11492;42.646;23.400;2023-02-13T14:48:42;96554.84;;;10.98;37.45
22651;BME280;11492;42.646;23.400;2023-02-13T14:51:20;96555.06;;;10.78;37.79
22651;BME280;11492;42.646;23.400;2023-02-13T14:53:56;96546.78;;;10.65;38.49
22651;BME280;11492;42.646;23.400;2023-02-13T14:56:23;96552.59;;;10.41;38.75
22651;BME280;11492;42.646;23.400;2023-02-13T14:59:09;96553.69;;;10.38;38.81
22651;BME280;11492;42.646;23.400;2023-02-13T15:01:44;96557.78;;;10.31;39.51
22651;BME280;11492;42.646;23.400;2023-02-13T15:04:15;96556.84;;;10.23;38.85
22651;BME280;11492;42.646;23.400;2023-02-13T15:06:43;96552.94;;;10.10;40.04
22651;BME280;11492;42.646;23.400;2023-02-13T15:09:33;96554.41;;;9.75;40.45
22651;BME280;11492;42.646;23.400;2023-02-13T15:11:59;96555.38;;;9.65;40.97
22651;BME280;11492;42.646;23.400;2023-02-13T15:14:35;96556.69;;;9.22;41.58
22651;BME280;11492;42.646;23.400;2023-02-13T15:17:14;96554.50;;;9.18;41.85
22651;BME280;11492;42.646;23.400;2023-02-13T15:19:52;96561.22;;;9.00;42.20
22651;BME280;11492;42.646;23.400;2023-02-13T15:22:23;96563.47;;;8.84;42.98
22651;BME280;11492;42.646;23.400;2023-02-13T15:24:53;96563.56;;;8.64;43.20
22651;BME280;11492;42.646;23.400;2023-02-13T15:27:26;96561.75;;;8.55;43.59
22651;BME280;11492;42.646;23.400;2023-02-13T15:30:17;96563.31;;;8.47;43.63
22651;BME280;11492;42.646;23.400;2023-02-13T15:32:43;96573.13;;;8.33;44.11
22651;BME280;11492;42.646;23.400;2023-02-13T15:35:30;96572.28;;;8.23;44.68
22651;BME280;11492;42.646;23.400;2023-02-13T15:37:56;96565.59;;;8.00;44.33
22651;BME280;11492;42.646;23.400;2023-02-13T15:40:25;96571.97;;;7.86;45.45
22651;BME280;11492;42.646;23.400;2023-02-13T15:42:52;96576.66;;;7.81;45.54
22651;BME280;11492;42.646;23.400;2023-02-13T15:45:19;96577.16;;;7.75;46.01
22651;BME280;11492;42.646;23.400;2023-02-13T15:47:46;96583.97;;;7.65;46.16
22651;BME280;11492;42.646;23.400;2023-02-13T15:50:38;96584.84;;;7.55;46.14
22651;BME280;11492;42.646;23.400;2023-02-13T15:53:04;96578.47;;;7.39;46.85